createdAt,value
2022-12-25T00:01:44.994Z,11.20
2022-12-25T00:04:12.071Z,11.10
2022-12-25T00:06:38.840Z,11.10
2022-12-25T00:09:05.523Z,11.10
2022-12-25T00:11:32.257Z,11.10
2022-12-25T00:13:59.086Z,11.10
2022-12-25T00:16:26.532Z,11.10
2022-12-25T00:18:53.679Z,11.10
2022-12-25T00:21:20.861Z,11.20
2022-12-25T00:23:47.822Z,11.20
2022-12-25T00:26:16.088Z,11.20
2022-12-25T00:28:42.878Z,11.30
2022-12-25T00:31:14.557Z,11.20
2022-12-25T00:33:42.249Z,11.20
2022-12-25T00:36:11.846Z,11.30
2022-12-25T00:38:38.895Z,11.30
2022-12-25T00:41:13.759Z,11.20
2022-12-25T00:43:41.993Z,11.20
2022-12-25T00:46:09.284Z,11.10
2022-12-25T00:48:36.190Z,11.00
2022-12-25T00:51:04.860Z,10.90
2022-12-25T00:53:31.584Z,10.80
2022-12-25T00:56:05.682Z,10.80
2022-12-25T00:58:33.449Z,10.70
2022-12-25T01:01:00.318Z,10.70
2022-12-25T01:03:27.319Z,10.70
2022-12-25T01:06:02.362Z,10.80
2022-12-25T01:08:33.808Z,10.80
2022-12-25T01:11:02.699Z,10.80
2022-12-25T01:13:29.681Z,10.90
2022-12-25T01:15:56.462Z,10.90
2022-12-25T01:18:24.084Z,10.90
2022-12-25T01:20:51.039Z,11.00
2022-12-25T01:23:17.752Z,11.00
2022-12-25T01:25:44.384Z,11.00
2022-12-25T01:28:11.039Z,11.00
2022-12-25T01:30:37.896Z,11.00
2022-12-25T01:33:04.818Z,11.00
2022-12-25T01:35:31.638Z,10.90
2022-12-25T01:37:58.383Z,10.90
2022-12-25T01:40:25.092Z,10.90
2022-12-25T01:42:51.966Z,10.80
2022-12-25T01:45:32.256Z,10.80
2022-12-25T01:47:59.289Z,10.70
2022-12-25T01:50:26.135Z,10.70
2022-12-25T01:52:52.804Z,10.70
2022-12-25T01:55:19.481Z,10.60
2022-12-25T01:57:46.187Z,10.60
2022-12-25T02:00:13.335Z,10.60
2022-12-25T02:02:40.452Z,10.60
2022-12-25T02:05:24.616Z,10.50
2022-12-25T02:07:51.446Z,10.60
2022-12-25T02:10:18.139Z,10.60
2022-12-25T02:12:45.181Z,10.60
2022-12-25T02:15:20.493Z,10.60
2022-12-25T02:17:52.401Z,10.60
2022-12-25T02:20:30.742Z,10.60
2022-12-25T02:23:32.403Z,10.70
2022-12-25T02:26:30.044Z,10.70
2022-12-25T02:29:09.290Z,10.70
2022-12-25T02:31:43.272Z,10.70
2022-12-25T02:34:21.292Z,10.70
2022-12-25T02:37:10.176Z,10.80
2022-12-25T02:39:57.952Z,10.70
2022-12-25T02:42:57.895Z,10.80
2022-12-25T02:45:49.036Z,10.70
2022-12-25T02:48:34.590Z,10.70
2022-12-25T02:51:21.378Z,10.80
2022-12-25T02:54:06.494Z,10.80
2022-12-25T02:56:51.520Z,10.80
2022-12-25T02:59:36.454Z,10.80
2022-12-25T03:02:21.535Z,10.80
2022-12-25T03:05:07.135Z,10.80
2022-12-25T03:07:34.210Z,10.80
2022-12-25T03:10:22.238Z,10.80
2022-12-25T03:12:58.184Z,10.90
2022-12-25T03:15:43.379Z,10.90
2022-12-25T03:18:15.448Z,10.90
2022-12-25T03:21:00.616Z,10.90
2022-12-25T03:23:50.317Z,11.00
2022-12-25T03:26:35.981Z,11.00
2022-12-25T03:29:02.737Z,11.00
2022-12-25T03:31:47.124Z,11.00
2022-12-25T03:34:44.924Z,11.00
2022-12-25T03:37:45.544Z,11.00
2022-12-25T03:40:45.506Z,11.00
2022-12-25T03:44:02.671Z,11.00
2022-12-25T03:46:51.019Z,11.10
2022-12-25T03:49:46.769Z,11.10
2022-12-25T03:52:32.983Z,11.10
2022-12-25T03:55:19.060Z,11.10
2022-12-25T03:58:04.254Z,11.10
2022-12-25T04:00:49.372Z,11.10
2022-12-25T04:03:34.640Z,11.10
2022-12-25T04:06:19.724Z,11.00
2022-12-25T04:09:05.023Z,11.10
2022-12-25T04:11:50.159Z,11.10
2022-12-25T04:14:35.265Z,11.10
2022-12-25T04:17:34.158Z,11.10
2022-12-25T04:20:19.272Z,11.10
2022-12-25T04:23:04.976Z,11.20
2022-12-25T04:25:50.061Z,11.20
2022-12-25T04:28:35.337Z,11.20
2022-12-25T04:31:20.400Z,11.20
2022-12-25T04:34:05.740Z,11.20
2022-12-25T04:36:32.695Z,11.20
2022-12-25T04:38:59.411Z,11.20
2022-12-25T04:41:26.147Z,11.20
2022-12-25T04:43:52.872Z,11.20
2022-12-25T04:46:19.650Z,11.20
2022-12-25T04:48:46.514Z,11.20
2022-12-25T04:51:22.875Z,11.20
2022-12-25T04:53:49.936Z,11.20
2022-12-25T04:56:17.145Z,11.10
2022-12-25T04:58:44.025Z,11.10
2022-12-25T05:01:10.797Z,11.10
2022-12-25T05:03:37.621Z,11.10
2022-12-25T05:06:04.794Z,11.10
2022-12-25T05:08:32.296Z,11.10
2022-12-25T05:10:58.990Z,11.10
2022-12-25T05:13:25.828Z,11.10
2022-12-25T05:15:52.649Z,11.10
2022-12-25T05:18:19.430Z,11.10
2022-12-25T05:20:54.581Z,11.10
2022-12-25T05:23:21.856Z,11.10
2022-12-25T05:25:48.575Z,11.10
2022-12-25T05:28:15.333Z,11.00
2022-12-25T05:30:41.996Z,11.00
2022-12-25T05:33:08.759Z,11.00
2022-12-25T05:35:37.666Z,11.00
2022-12-25T05:38:05.263Z,11.10
2022-12-25T05:40:32.152Z,11.10
2022-12-25T05:42:58.906Z,11.10
2022-12-25T05:45:25.583Z,11.10
2022-12-25T05:47:52.751Z,11.10
2022-12-25T05:50:19.497Z,11.10
2022-12-25T05:52:46.218Z,11.10
2022-12-25T05:55:12.917Z,11.20
2022-12-25T05:57:39.562Z,11.20
2022-12-25T06:00:06.922Z,11.20
2022-12-25T06:02:35.410Z,11.20
2022-12-25T06:05:03.547Z,11.20
2022-12-25T06:07:30.474Z,11.20
2022-12-25T06:09:57.132Z,11.20
2022-12-25T06:12:23.835Z,11.20
2022-12-25T06:14:50.533Z,11.20
2022-12-25T06:17:17.575Z,11.20
2022-12-25T06:19:44.268Z,11.20
2022-12-25T06:22:10.933Z,11.20
2022-12-25T06:24:38.487Z,11.10
2022-12-25T06:27:05.216Z,11.10
2022-12-25T06:29:31.984Z,11.10
2022-12-25T06:31:59.146Z,11.00
2022-12-25T06:34:26.134Z,11.00
2022-12-25T06:36:53.374Z,11.00
2022-12-25T06:39:21.431Z,11.00
2022-12-25T06:41:48.233Z,11.00
2022-12-25T06:44:14.896Z,11.00
2022-12-25T06:46:41.564Z,11.00
2022-12-25T06:49:08.288Z,10.90
2022-12-25T06:51:34.995Z,10.90
2022-12-25T06:54:04.040Z,10.90
2022-12-25T06:56:31.392Z,10.90
2022-12-25T06:58:59.671Z,10.90
2022-12-25T07:01:50.743Z,10.90
2022-12-25T07:04:21.754Z,10.90
2022-12-25T07:06:48.425Z,10.90
2022-12-25T07:09:15.281Z,10.90
2022-12-25T07:11:42.144Z,10.90
2022-12-25T07:14:23.235Z,10.90
2022-12-25T07:16:51.438Z,10.90
2022-12-25T07:19:19.234Z,10.90
2022-12-25T07:21:46.287Z,10.80
2022-12-25T07:24:17.502Z,10.90
2022-12-25T07:26:44.184Z,10.90
2022-12-25T07:29:10.826Z,10.90
2022-12-25T07:31:37.758Z,10.90
2022-12-25T07:34:04.488Z,11.00
2022-12-25T07:36:31.164Z,11.00
2022-12-25T07:38:57.849Z,11.00
2022-12-25T07:41:24.592Z,11.00
2022-12-25T07:43:52.338Z,11.00
2022-12-25T07:46:20.108Z,11.10
2022-12-25T07:48:46.967Z,11.10
2022-12-25T07:51:14.501Z,11.10
2022-12-25T07:53:41.204Z,11.20
2022-12-25T07:56:12.668Z,11.20
2022-12-25T07:58:39.437Z,11.20
2022-12-25T08:01:08.211Z,11.20
2022-12-25T08:03:35.512Z,11.20
2022-12-25T08:06:03.053Z,11.30
2022-12-25T08:08:29.833Z,11.20
2022-12-25T08:10:56.979Z,11.20
2022-12-25T08:13:23.729Z,11.20
2022-12-25T08:15:50.531Z,11.20
2022-12-25T08:18:17.881Z,11.20
2022-12-25T08:20:44.661Z,11.20
2022-12-25T08:23:11.318Z,11.20
2022-12-25T08:25:38.023Z,11.20
2022-12-25T08:28:04.921Z,11.20
2022-12-25T08:30:31.741Z,11.20
2022-12-25T08:32:58.640Z,11.20
2022-12-25T08:35:26.253Z,11.20
2022-12-25T08:37:52.920Z,11.20
2022-12-25T08:40:19.623Z,11.20
2022-12-25T08:42:46.296Z,11.20
2022-12-25T08:45:12.963Z,11.20
2022-12-25T08:47:39.677Z,11.10
2022-12-25T08:50:07.192Z,11.10
2022-12-25T08:52:34.034Z,11.10
2022-12-25T08:55:00.721Z,11.10
2022-12-25T08:57:27.791Z,11.10
2022-12-25T08:59:54.473Z,11.10
2022-12-25T09:02:21.375Z,11.10
2022-12-25T09:04:48.248Z,11.10
2022-12-25T09:07:14.912Z,11.20
2022-12-25T09:09:43.495Z,11.20
2022-12-25T09:12:10.176Z,11.20
2022-12-25T09:14:36.971Z,11.20
2022-12-25T09:17:03.661Z,11.20
2022-12-25T09:19:30.912Z,11.20
2022-12-25T09:21:57.696Z,11.20
2022-12-25T09:24:24.497Z,11.20
2022-12-25T09:26:51.439Z,11.20
2022-12-25T09:29:18.193Z,11.20
2022-12-25T09:31:45.353Z,11.20
2022-12-25T09:34:17.078Z,11.20
2022-12-25T09:36:45.619Z,11.20
2022-12-25T09:39:13.211Z,11.20
2022-12-25T09:42:00.314Z,11.20
2022-12-25T09:44:38.563Z,11.30
2022-12-25T09:47:16.700Z,11.30
2022-12-25T09:50:08.489Z,11.30
2022-12-25T09:52:48.675Z,11.40
2022-12-25T09:55:20.546Z,11.40
2022-12-25T09:57:52.722Z,11.40
2022-12-25T10:00:24.923Z,11.50
2022-12-25T10:03:07.162Z,11.50
2022-12-25T10:05:40.150Z,11.50
2022-12-25T10:08:40.146Z,11.50
2022-12-25T10:11:27.108Z,11.50
2022-12-25T10:14:00.519Z,11.60
2022-12-25T10:16:46.955Z,11.60
2022-12-25T10:20:05.073Z,11.60
2022-12-25T10:22:38.077Z,11.60
2022-12-25T10:25:10.333Z,11.70
2022-12-25T10:27:38.139Z,11.70
2022-12-25T10:30:25.615Z,11.70
2022-12-25T10:32:52.838Z,11.70
2022-12-25T10:35:21.209Z,11.80
2022-12-25T10:37:58.695Z,11.80
2022-12-25T10:40:28.426Z,11.80
2022-12-25T10:42:57.686Z,11.90
2022-12-25T10:45:24.556Z,11.90
2022-12-25T10:48:06.889Z,11.90
2022-12-25T10:50:34.382Z,11.90
2022-12-25T10:53:02.267Z,12.00
2022-12-25T10:55:29.836Z,11.90
2022-12-25T10:57:57.956Z,11.90
2022-12-25T11:00:29.786Z,12.00
2022-12-25T11:02:56.794Z,12.00
2022-12-25T11:05:28.571Z,12.10
2022-12-25T11:07:56.067Z,12.20
2022-12-25T11:10:31.861Z,12.30
2022-12-25T11:12:59.358Z,12.30
2022-12-25T11:15:36.674Z,12.30
2022-12-25T11:18:05.003Z,12.40
2022-12-25T11:20:33.257Z,12.40
2022-12-25T11:23:00.450Z,12.30
2022-12-25T11:25:27.778Z,12.40
2022-12-25T11:28:04.877Z,12.40
2022-12-25T11:30:32.687Z,12.40
2022-12-25T11:33:07.680Z,12.50
2022-12-25T11:35:50.373Z,12.60
2022-12-25T11:38:17.487Z,12.80
2022-12-25T11:40:56.302Z,12.90
2022-12-25T11:43:36.126Z,13.00
2022-12-25T11:46:31.281Z,13.00
2022-12-25T11:49:00.784Z,13.10
2022-12-25T11:51:31.593Z,13.20
2022-12-25T11:54:58.356Z,13.30
2022-12-25T11:57:26.076Z,13.40
2022-12-25T11:59:57.104Z,13.50
2022-12-25T12:02:35.283Z,13.50
2022-12-25T12:05:24.494Z,13.50
2022-12-25T12:08:02.051Z,13.50
2022-12-25T12:11:15.746Z,13.50
2022-12-25T12:14:12.595Z,13.50
2022-12-25T12:16:39.370Z,13.60
2022-12-25T12:19:14.072Z,13.70
2022-12-25T12:21:40.892Z,13.80
2022-12-25T12:24:13.886Z,13.90
2022-12-25T12:26:41.469Z,14.00
2022-12-25T12:29:20.996Z,14.20
2022-12-25T12:31:48.816Z,14.30
2022-12-25T12:34:22.527Z,14.30
2022-12-25T12:36:50.214Z,14.30
2022-12-25T12:39:23.385Z,14.40
2022-12-25T12:41:50.049Z,14.40
2022-12-25T12:44:17.328Z,14.50
2022-12-25T12:46:55.286Z,14.40
2022-12-25T12:49:34.226Z,14.30
2022-12-25T12:52:23.587Z,14.20
2022-12-25T12:55:13.163Z,14.10
2022-12-25T12:57:40.196Z,13.90
2022-12-25T13:00:18.095Z,13.80
2022-12-25T13:03:00.411Z,13.80
2022-12-25T13:05:39.192Z,13.70
2022-12-25T13:08:14.620Z,13.60
2022-12-25T13:10:52.020Z,13.40
2022-12-25T13:13:21.034Z,13.40
2022-12-25T13:15:49.008Z,13.30
2022-12-25T13:18:15.832Z,13.30
2022-12-25T13:20:57.311Z,13.30
2022-12-25T13:23:34.753Z,13.30
2022-12-25T13:26:06.134Z,13.20
2022-12-25T13:28:36.643Z,13.10
2022-12-25T13:31:20.367Z,13.10
2022-12-25T13:34:23.904Z,13.10
2022-12-25T13:36:50.624Z,13.00
2022-12-25T13:39:17.410Z,12.90
2022-12-25T13:42:06.518Z,12.90
2022-12-25T13:44:39.096Z,12.90
2022-12-25T13:47:37.897Z,12.80
2022-12-25T13:50:23.454Z,12.80
2022-12-25T13:52:50.482Z,12.70
2022-12-25T13:55:27.516Z,12.70
2022-12-25T13:58:01.443Z,12.60
2022-12-25T14:00:47.045Z,12.60
2022-12-25T14:03:19.316Z,12.50
2022-12-25T14:05:46.157Z,12.40
2022-12-25T14:08:14.823Z,12.40
2022-12-25T14:10:41.696Z,12.40
2022-12-25T14:13:11.139Z,12.40
2022-12-25T14:15:38.272Z,12.30
2022-12-25T14:18:05.131Z,12.30
2022-12-25T14:20:37.978Z,12.30
2022-12-25T14:23:04.809Z,12.30
2022-12-25T14:25:33.785Z,12.30
2022-12-25T14:28:00.662Z,12.30
2022-12-25T14:30:27.971Z,12.40
2022-12-25T14:32:55.964Z,12.40
2022-12-25T14:35:23.967Z,12.40
2022-12-25T14:37:55.413Z,12.40
2022-12-25T14:40:26.411Z,12.40
2022-12-25T14:43:01.101Z,12.40
2022-12-25T14:45:35.638Z,12.40
2022-12-25T14:48:19.806Z,12.30
2022-12-25T14:50:59.290Z,12.30
2022-12-25T14:53:41.027Z,12.30
2022-12-25T14:56:08.289Z,12.30
2022-12-25T14:58:40.475Z,12.20
2022-12-25T15:01:07.400Z,12.20
2022-12-25T15:03:37.332Z,12.20
2022-12-25T15:06:05.942Z,12.20
2022-12-25T15:08:33.682Z,12.20
2022-12-25T15:11:02.561Z,12.20
2022-12-25T15:13:30.698Z,12.20
2022-12-25T15:16:12.233Z,12.10
2022-12-25T15:18:41.507Z,12.10
2022-12-25T15:21:21.555Z,12.00
2022-12-25T15:23:48.284Z,12.00
2022-12-25T15:26:15.123Z,11.90
2022-12-25T15:28:41.921Z,11.90
2022-12-25T15:31:28.419Z,11.90
2022-12-25T15:33:56.958Z,11.80
2022-12-25T15:36:23.811Z,11.70
2022-12-25T15:38:50.964Z,11.70
2022-12-25T15:41:37.816Z,11.60
2022-12-25T15:44:05.284Z,11.50
2022-12-25T15:46:32.248Z,11.40
2022-12-25T15:48:58.991Z,11.40
2022-12-25T15:51:25.821Z,11.30
2022-12-25T15:53:52.583Z,11.20
2022-12-25T15:56:19.355Z,11.20
2022-12-25T15:58:46.027Z,11.10
2022-12-25T16:01:16.547Z,11.10
2022-12-25T16:03:43.843Z,11.10
2022-12-25T16:06:15.338Z,11.00
2022-12-25T16:08:42.271Z,11.00
2022-12-25T16:11:09.254Z,10.90
2022-12-25T16:13:36.124Z,10.80
2022-12-25T16:16:04.231Z,10.80
2022-12-25T16:18:31.071Z,10.70
2022-12-25T16:20:57.783Z,10.70
2022-12-25T16:23:24.567Z,10.70
2022-12-25T16:25:51.390Z,10.60
2022-12-25T16:28:18.584Z,10.60
2022-12-25T16:30:45.453Z,10.60
2022-12-25T16:33:12.236Z,10.60
2022-12-25T16:35:38.954Z,10.50
2022-12-25T16:38:05.655Z,10.60
2022-12-25T16:40:32.378Z,10.50
2022-12-25T16:42:59.250Z,10.50
2022-12-25T16:45:25.905Z,10.50
2022-12-25T16:47:52.633Z,10.50
2022-12-25T16:50:19.521Z,10.50
2022-12-25T16:52:46.217Z,10.50
2022-12-25T16:55:13.104Z,10.50
2022-12-25T16:57:39.784Z,10.50
2022-12-25T17:00:07.072Z,10.50
2022-12-25T17:02:33.844Z,10.50
2022-12-25T17:05:00.996Z,10.50
2022-12-25T17:07:28.100Z,10.50
2022-12-25T17:09:56.979Z,10.60
2022-12-25T17:12:23.784Z,10.60
2022-12-25T17:14:50.845Z,10.60
2022-12-25T17:17:17.602Z,10.60
2022-12-25T17:19:44.411Z,10.70
2022-12-25T17:22:11.191Z,10.70
2022-12-25T17:24:40.322Z,10.70
2022-12-25T17:27:09.189Z,10.70
2022-12-25T17:29:36.989Z,10.70
2022-12-25T17:32:03.739Z,10.80
2022-12-25T17:34:30.378Z,10.80
2022-12-25T17:36:57.090Z,10.80
2022-12-25T17:39:23.779Z,10.80
2022-12-25T17:41:51.076Z,10.80
2022-12-25T17:44:18.566Z,10.80
2022-12-25T17:46:45.371Z,10.80
2022-12-25T17:49:20.284Z,10.80
2022-12-25T17:51:47.151Z,10.70
2022-12-25T17:54:13.967Z,10.70
2022-12-25T17:56:40.697Z,10.60
2022-12-25T17:59:08.407Z,10.50
2022-12-25T18:01:36.525Z,10.50
2022-12-25T18:04:03.487Z,10.40
2022-12-25T18:06:30.318Z,10.30
2022-12-25T18:08:57.594Z,10.30
2022-12-25T18:11:29.083Z,10.20
2022-12-25T18:13:57.840Z,10.20
2022-12-25T18:16:24.980Z,10.10
2022-12-25T18:18:52.840Z,10.20
2022-12-25T18:21:20.597Z,10.20
2022-12-25T18:23:47.342Z,10.20
2022-12-25T18:26:14.026Z,10.20
2022-12-25T18:28:42.392Z,10.20
2022-12-25T18:31:10.434Z,10.20
2022-12-25T18:33:37.167Z,10.20
2022-12-25T18:36:04.181Z,10.20
2022-12-25T18:38:30.824Z,10.20
2022-12-25T18:40:57.954Z,10.20
2022-12-25T18:43:52.948Z,10.10
2022-12-25T18:46:11.648Z,10.10
2022-12-25T18:48:38.577Z,10.10
2022-12-25T18:51:07.880Z,10.10
2022-12-25T18:53:35.012Z,10.10
2022-12-25T18:56:07.921Z,10.20
2022-12-25T18:58:35.612Z,10.10
2022-12-25T19:01:02.533Z,10.10
2022-12-25T19:03:29.541Z,10.10
2022-12-25T19:05:56.221Z,10.10
2022-12-25T19:08:22.897Z,10.10
2022-12-25T19:10:49.648Z,10.10
2022-12-25T19:13:16.312Z,10.10
2022-12-25T19:15:43.421Z,10.00
2022-12-25T19:18:10.568Z,10.00
2022-12-25T19:20:40.789Z,10.00
2022-12-25T19:23:08.417Z,10.00
2022-12-25T19:25:35.147Z,10.00
2022-12-25T19:28:01.865Z,10.00
2022-12-25T19:30:28.636Z,10.00
2022-12-25T19:32:55.346Z,10.00
2022-12-25T19:35:22.197Z,10.00
2022-12-25T19:37:48.895Z,9.90
2022-12-25T19:40:15.752Z,9.90
2022-12-25T19:42:42.522Z,9.90
2022-12-25T19:45:09.673Z,9.90
2022-12-25T19:47:36.399Z,9.90
2022-12-25T19:50:03.848Z,9.90
2022-12-25T19:52:30.690Z,9.90
2022-12-25T19:54:57.382Z,9.90
2022-12-25T19:57:24.579Z,9.80
2022-12-25T19:59:51.342Z,9.90
2022-12-25T20:02:18.178Z,9.80
2022-12-25T20:04:44.921Z,9.80
2022-12-25T20:07:11.667Z,9.80
2022-12-25T20:09:38.857Z,9.80
2022-12-25T20:12:06.036Z,9.80
2022-12-25T20:14:33.069Z,9.80
2022-12-25T20:16:59.929Z,9.80
2022-12-25T20:19:27.140Z,9.80
2022-12-25T20:21:54.541Z,9.80
2022-12-25T20:24:22.025Z,9.80
2022-12-25T20:26:50.527Z,9.80
2022-12-25T20:29:22.065Z,9.80
2022-12-25T20:31:48.757Z,9.80
2022-12-25T20:34:15.459Z,9.80
2022-12-25T20:36:42.250Z,9.80
2022-12-25T20:39:10.047Z,9.90
2022-12-25T20:41:37.397Z,9.90
2022-12-25T20:44:04.410Z,9.90
2022-12-25T20:46:31.243Z,10.00
2022-12-25T20:48:58.296Z,10.00
2022-12-25T20:51:25.589Z,9.90
2022-12-25T20:53:52.468Z,9.90
2022-12-25T20:56:20.545Z,10.00
2022-12-25T20:58:47.272Z,10.00
2022-12-25T21:01:17.526Z,10.00
2022-12-25T21:03:44.708Z,10.00
2022-12-25T21:06:11.706Z,10.10
2022-12-25T21:08:38.915Z,10.10
2022-12-25T21:11:05.899Z,10.10
2022-12-25T21:13:37.354Z,10.00
2022-12-25T21:16:15.382Z,10.00
2022-12-25T21:18:42.175Z,10.00
2022-12-25T21:21:09.085Z,10.10
2022-12-25T21:23:37.313Z,10.10
2022-12-25T21:26:11.769Z,10.00
2022-12-25T21:28:38.703Z,10.00
2022-12-25T21:31:05.734Z,10.00
2022-12-25T21:33:51.311Z,9.90
2022-12-25T21:36:44.882Z,9.90
2022-12-25T21:39:14.268Z,9.80
2022-12-25T21:41:41.499Z,9.80
2022-12-25T21:44:08.733Z,9.80
2022-12-25T21:46:35.704Z,9.80
2022-12-25T21:49:02.493Z,9.70
2022-12-25T21:51:49.772Z,9.80
2022-12-25T21:54:16.937Z,9.80
2022-12-25T21:56:45.430Z,9.90
2022-12-25T21:59:14.380Z,9.90
2022-12-25T22:01:41.609Z,9.90
2022-12-25T22:04:10.435Z,9.90
2022-12-25T22:06:55.736Z,10.00
2022-12-25T22:09:22.538Z,10.00
2022-12-25T22:12:07.799Z,10.00
2022-12-25T22:14:56.837Z,10.00
2022-12-25T22:17:46.958Z,9.90
2022-12-25T22:20:20.518Z,9.90
2022-12-25T22:22:47.522Z,9.80
2022-12-25T22:25:14.285Z,9.80
2022-12-25T22:27:41.685Z,9.80
2022-12-25T22:30:10.677Z,9.80
2022-12-25T22:32:37.474Z,9.80
2022-12-25T22:35:04.596Z,9.80
2022-12-25T22:37:31.389Z,9.80
2022-12-25T22:39:58.119Z,9.80
2022-12-25T22:42:24.863Z,9.80
2022-12-25T22:44:51.550Z,9.80
2022-12-25T22:47:18.281Z,9.70
2022-12-25T22:49:45.039Z,9.70
2022-12-25T22:52:11.824Z,9.70
2022-12-25T22:54:38.567Z,9.70
2022-12-25T22:57:05.344Z,9.70
2022-12-25T22:59:32.970Z,9.70
2022-12-25T23:02:00.145Z,9.70
2022-12-25T23:04:27.502Z,9.80
2022-12-25T23:06:54.418Z,9.70
2022-12-25T23:09:24.842Z,9.70
2022-12-25T23:11:52.428Z,9.70
2022-12-25T23:14:37.693Z,9.70
2022-12-25T23:17:04.541Z,9.70
2022-12-25T23:20:06.550Z,9.70
2022-12-25T23:22:52.066Z,9.70
2022-12-25T23:25:37.136Z,9.70
2022-12-25T23:28:03.949Z,9.70
2022-12-25T23:30:30.616Z,9.70
2022-12-25T23:32:57.436Z,9.70
2022-12-25T23:35:24.137Z,9.70
2022-12-25T23:37:53.433Z,9.70
2022-12-25T23:40:20.659Z,9.70
2022-12-25T23:42:47.458Z,9.70
2022-12-25T23:45:17.728Z,9.70
2022-12-25T23:47:44.429Z,9.70
2022-12-25T23:50:11.370Z,9.80
2022-12-25T23:52:38.182Z,9.80
2022-12-25T23:55:09.126Z,9.80
2022-12-25T23:57:37.976Z,9.80
